Time;durP1;ratioP1;P1;durP2;ratioP2;P2;SDS_P1;SDS_P2;PMS_P1;PMS_P2;Temp;Humidity;BMP_temperature;BMP_pressure;BME280_temperature;BME280_humidity;BME280_pressure;Samples;Min_cycle;Max_cycle;Signal;HPM_P1;HPM_P2
2022/04/07 00:02:05;;;;;;;11.18;8.50;;;7.80;99.90;;;;;;5111045;28;20050;-72
2022/04/07 00:05:09;;;;;;;11.75;9.35;;;7.70;99.90;;;;;;5111140;28;20047;-72
2022/04/07 00:08:13;;;;;;;12.77;9.32;;;7.70;99.90;;;;;;5110350;28;20055;-72
2022/04/07 00:11:17;;;;;;;14.68;9.90;;;7.70;99.90;;;;;;5111081;28;20046;-72
2022/04/07 00:14:21;;;;;;;15.85;9.05;;;7.70;99.90;;;;;;5111151;28;20038;-72
2022/04/07 00:17:27;;;;;;;15.57;9.15;;;7.60;99.90;;;;;;5110648;28;20046;-72
2022/04/07 00:20:31;;;;;;;14.30;8.95;;;7.60;99.90;;;;;;5110809;28;20044;-72
2022/04/07 00:23:36;;;;;;;13.20;9.10;;;7.60;99.90;;;;;;5110870;28;20553;-72
2022/04/07 00:26:40;;;;;;;12.25;8.43;;;7.60;99.90;;;;;;5110337;28;20039;-72
2022/04/07 00:29:44;;;;;;;11.27;8.65;;;7.60;99.90;;;;;;5110524;28;20388;-72
2022/04/07 00:32:49;;;;;;;11.73;8.20;;;7.50;99.90;;;;;;5110899;28;20070;-72
2022/04/07 00:35:53;;;;;;;11.57;8.20;;;7.60;99.90;;;;;;5110896;28;20051;-72
2022/04/07 00:38:56;;;;;;;11.35;7.97;;;7.50;99.90;;;;;;5110877;28;20055;-72
2022/04/07 00:42:01;;;;;;;11.48;8.13;;;7.50;99.90;;;;;;5110709;28;20050;-73
2022/04/07 00:45:07;;;;;;;13.18;9.50;;;7.50;99.90;;;;;;5110729;28;20058;-72
2022/04/07 00:48:10;;;;;;;17.27;9.95;;;7.50;99.90;;;;;;5110221;28;20043;-72
2022/04/07 00:51:15;;;;;;;17.23;10.30;;;7.50;99.90;;;;;;5109927;28;20035;-72
2022/04/07 00:54:20;;;;;;;14.43;9.88;;;7.50;99.90;;;;;;5110406;28;20059;-72
2022/04/07 00:57:25;;;;;;;18.92;9.20;;;7.50;99.90;;;;;;5110182;28;20042;-72
2022/04/07 01:00:30;;;;;;;13.13;8.77;;;7.50;99.90;;;;;;5110285;28;20047;-72
2022/04/07 01:03:35;;;;;;;11.52;8.18;;;7.50;99.90;;;;;;5110109;28;20051;-73
2022/04/07 01:06:43;;;;;;;11.60;7.75;;;7.50;99.90;;;;;;5110073;28;20410;-72
2022/04/07 01:09:47;;;;;;;10.05;6.97;;;7.40;99.90;;;;;;5110113;28;20043;-72
2022/04/07 01:12:51;;;;;;;10.32;7.15;;;7.50;99.90;;;;;;5109951;28;20485;-72
2022/04/07 01:15:55;;;;;;;11.20;7.90;;;7.50;99.90;;;;;;5110335;28;20393;-73
2022/04/07 01:18:59;;;;;;;9.25;6.93;;;7.50;99.90;;;;;;5109898;28;20497;-73
2022/04/07 01:22:04;;;;;;;9.27;5.72;;;7.50;99.90;;;;;;5110157;28;20485;-72
2022/04/07 01:25:08;;;;;;;9.63;5.80;;;7.50;99.90;;;;;;5110262;28;20046;-72
2022/04/07 01:28:12;;;;;;;9.45;5.40;;;7.50;99.90;;;;;;5109891;28;20048;-72
2022/04/07 01:31:16;;;;;;;9.90;4.70;;;7.50;99.90;;;;;;5110284;28;20043;-73
2022/04/07 01:34:20;;;;;;;6.78;4.93;;;7.50;99.90;;;;;;5109826;28;20043;-73
2022/04/07 01:37:24;;;;;;;12.43;4.95;;;7.50;99.90;;;;;;5109552;28;20390;-73
2022/04/07 01:40:33;;;;;;;6.25;4.55;;;7.50;99.90;;;;;;5110500;28;20043;-73
2022/04/07 01:43:39;;;;;;;7.50;4.28;;;7.50;99.90;;;;;;5109938;28;20044;-73
2022/04/07 01:46:42;;;;;;;6.13;3.72;;;7.50;99.90;;;;;;5110130;28;20032;-73
2022/04/07 01:49:52;;;;;;;6.22;3.70;;;7.40;99.90;;;;;;5110184;28;20386;-72
2022/04/07 01:52:57;;;;;;;5.40;3.40;;;7.40;99.90;;;;;;5110460;28;20036;-73
2022/04/07 01:56:03;;;;;;;4.47;3.05;;;7.40;99.90;;;;;;5110112;28;20039;-73
2022/04/07 01:59:08;;;;;;;7.43;3.88;;;7.30;99.90;;;;;;5110105;28;20048;-73
2022/04/07 02:02:12;;;;;;;9.93;4.18;;;7.30;99.90;;;;;;5112826;28;20040;-73
2022/04/07 02:05:16;;;;;;;6.55;3.45;;;7.30;99.90;;;;;;5113841;28;20039;-73
2022/04/07 02:08:24;;;;;;;5.70;3.50;;;7.30;99.90;;;;;;5113514;28;20047;-73
2022/04/07 02:11:28;;;;;;;4.72;3.28;;;7.30;99.90;;;;;;5113278;28;20390;-73
2022/04/07 02:14:33;;;;;;;3.78;3.35;;;7.30;99.90;;;;;;5113662;28;20031;-73
2022/04/07 02:17:38;;;;;;;4.72;3.90;;;7.40;99.90;;;;;;5113058;28;20032;-73
2022/04/07 02:20:42;;;;;;;5.20;4.00;;;7.40;99.90;;;;;;5113299;28;20028;-73
2022/04/07 02:23:46;;;;;;;6.82;4.47;;;7.40;99.90;;;;;;5113019;28;20034;-73
2022/04/07 02:26:51;;;;;;;5.00;3.55;;;7.50;99.90;;;;;;5113105;28;20052;-73
2022/04/07 02:29:55;;;;;;;6.35;4.30;;;7.50;99.90;;;;;;5111873;28;20044;-73
2022/04/07 02:32:59;;;;;;;6.20;4.32;;;7.50;99.90;;;;;;5113569;28;20495;-73
2022/04/07 02:36:05;;;;;;;6.60;4.82;;;7.50;99.90;;;;;;5113024;28;20787;-73
2022/04/07 02:39:09;;;;;;;7.93;4.95;;;7.50;99.90;;;;;;5113342;28;20043;-74
2022/04/07 02:42:13;;;;;;;8.25;5.25;;;7.50;99.90;;;;;;5113266;28;20036;-73
2022/04/07 02:45:17;;;;;;;10.13;5.78;;;7.50;99.90;;;;;;5113212;28;20044;-73
2022/04/07 02:48:20;;;;;;;6.63;5.10;;;7.60;99.90;;;;;;5112751;28;20039;-73
2022/04/07 02:51:24;;;;;;;9.23;5.95;;;7.60;99.90;;;;;;5112918;28;20058;-73
2022/04/07 02:54:28;;;;;;;9.55;5.32;;;7.60;99.90;;;;;;5112657;28;20034;-74
2022/04/07 02:57:32;;;;;;;9.00;5.95;;;7.60;99.90;;;;;;5112569;28;20487;-74
2022/04/07 03:00:36;;;;;;;12.48;6.88;;;7.60;99.90;;;;;;5112888;28;20038;-73
2022/04/07 03:03:40;;;;;;;24.40;15.43;;;7.60;99.90;;;;;;5112862;28;20050;-73
2022/04/07 03:06:44;;;;;;;15.40;11.52;;;7.60;99.90;;;;;;5111379;28;20047;-74
2022/04/07 03:09:48;;;;;;;12.45;9.65;;;7.70;99.90;;;;;;5112729;28;20034;-73
2022/04/07 03:12:52;;;;;;;18.35;10.55;;;7.70;99.90;;;;;;5111481;28;20497;-73
2022/04/07 03:15:56;;;;;;;16.98;10.90;;;7.70;99.90;;;;;;5112679;28;20043;-73
2022/04/07 03:19:00;;;;;;;17.10;12.10;;;7.70;99.90;;;;;;5112479;28;20046;-74
2022/04/07 03:22:04;;;;;;;20.83;12.00;;;7.70;99.90;;;;;;5112017;28;20398;-73
2022/04/07 03:25:08;;;;;;;17.70;11.73;;;7.80;99.90;;;;;;5112383;28;20043;-73
2022/04/07 03:28:13;;;;;;;25.02;13.45;;;7.70;99.90;;;;;;5112075;28;20039;-73
2022/04/07 03:31:16;;;;;;;21.02;14.40;;;7.80;99.90;;;;;;5112193;28;20074;-74
2022/04/07 03:34:21;;;;;;;24.48;14.75;;;7.80;99.90;;;;;;5111985;28;20047;-74
2022/04/07 03:37:25;;;;;;;19.63;13.80;;;7.70;99.90;;;;;;5111665;28;20414;-74
2022/04/07 03:40:29;;;;;;;23.60;14.85;;;7.70;99.90;;;;;;5112092;28;20070;-74
2022/04/07 03:43:34;;;;;;;26.60;15.18;;;7.60;99.90;;;;;;5111646;28;20046;-74
2022/04/07 03:46:38;;;;;;;22.40;14.90;;;7.60;99.90;;;;;;5111969;28;20034;-73
2022/04/07 03:49:42;;;;;;;24.92;14.57;;;7.50;99.90;;;;;;5112156;28;20047;-74
2022/04/07 03:52:45;;;;;;;22.00;14.88;;;7.50;99.90;;;;;;5111558;28;20046;-73
2022/04/07 03:55:49;;;;;;;23.63;14.70;;;7.40;99.90;;;;;;5111774;28;20046;-74
2022/04/07 03:58:53;;;;;;;20.75;14.63;;;7.30;99.90;;;;;;5111448;28;20046;-74
2022/04/07 04:01:57;;;;;;;23.17;14.40;;;7.20;99.90;;;;;;5111435;28;20378;-74
2022/04/07 04:05:01;;;;;;;36.15;22.75;;;7.20;99.90;;;;;;5111461;28;20494;-74
2022/04/07 04:08:05;;;;;;;47.15;26.48;;;7.10;99.90;;;;;;5110727;28;21334;-74
2022/04/07 04:11:09;;;;;;;50.80;28.55;;;7.10;99.90;;;;;;5111054;28;20043;-74
2022/04/07 04:14:13;;;;;;;47.13;25.25;;;7.10;99.90;;;;;;5111246;28;20490;-74
2022/04/07 04:17:17;;;;;;;96.22;46.78;;;7.00;99.90;;;;;;5110865;28;20054;-74
2022/04/07 04:20:21;;;;;;;503.67;248.43;;;7.00;99.90;;;;;;5111308;28;20493;-74
2022/04/07 04:23:25;;;;;;;499.85;264.92;;;7.00;99.90;;;;;;5110993;28;20042;-74
2022/04/07 04:26:29;;;;;;;174.38;87.72;;;7.00;99.90;;;;;;5110804;28;20498;-74
2022/04/07 04:29:33;;;;;;;77.10;39.95;;;7.10;99.90;;;;;;5111141;28;20051;-74
2022/04/07 04:32:37;;;;;;;34.53;20.10;;;7.10;99.90;;;;;;5110859;28;20046;-74
2022/04/07 04:35:41;;;;;;;26.63;16.17;;;7.20;99.90;;;;;;5110483;28;20058;-74
2022/04/07 04:38:45;;;;;;;31.02;18.20;;;7.20;99.90;;;;;;5110992;28;20046;-74
2022/04/07 04:41:49;;;;;;;30.88;17.40;;;7.30;99.90;;;;;;5110668;28;20078;-74
2022/04/07 04:44:53;;;;;;;21.60;14.45;;;7.30;99.90;;;;;;5111251;28;20082;-74
2022/04/07 04:47:58;;;;;;;21.92;14.73;;;7.30;99.90;;;;;;5110593;28;20039;-74
2022/04/07 04:51:05;;;;;;;19.30;12.05;;;7.20;99.90;;;;;;5110700;28;20225;-73
2022/04/07 04:54:11;;;;;;;18.60;10.85;;;7.20;99.90;;;;;;5111529;28;20050;-74
2022/04/07 04:57:15;;;;;;;13.02;9.30;;;7.20;99.90;;;;;;5110813;28;20047;-74
2022/04/07 05:00:19;;;;;;;16.92;9.82;;;7.10;99.90;;;;;;5111070;28;20055;-74
2022/04/07 05:03:23;;;;;;;99.85;54.53;;;7.20;99.90;;;;;;5110915;28;20401;-74
2022/04/07 05:06:27;;;;;;;645.47;398.08;;;7.20;99.90;;;;;;5110654;28;20493;-74
2022/04/07 05:09:31;;;;;;;643.63;329.40;;;7.20;99.90;;;;;;5110995;28;20035;-74
2022/04/07 05:12:36;;;;;;;457.67;195.93;;;7.30;99.90;;;;;;5110627;28;20051;-74
2022/04/07 05:15:40;;;;;;;660.33;346.40;;;7.40;99.90;;;;;;5109939;28;20050;-74
2022/04/07 05:18:47;;;;;;;190.52;92.18;;;7.50;99.90;;;;;;5110792;28;20066;-74
2022/04/07 05:21:51;;;;;;;359.42;182.10;;;7.60;99.90;;;;;;5111142;28;20043;-74
2022/04/07 05:24:54;;;;;;;627.88;337.95;;;7.70;99.90;;;;;;5111648;28;20054;-73
2022/04/07 05:27:59;;;;;;;330.60;163.45;;;7.80;99.90;;;;;;5110941;28;20039;-74
2022/04/07 05:31:03;;;;;;;310.13;152.80;;;7.90;99.90;;;;;;5110953;28;20058;-74
2022/04/07 05:34:08;;;;;;;309.55;141.30;;;8.10;99.90;;;;;;5110742;28;20055;-74
2022/04/07 05:37:11;;;;;;;159.70;68.90;;;9.40;99.90;;;;;;5113753;28;20436;-74
2022/04/07 05:40:15;;;;;;;144.48;58.53;;;12.10;99.90;;;;;;5115093;28;20055;-74
2022/04/07 05:43:19;;;;;;;34.50;16.20;;;14.50;99.90;;;;;;5114714;28;20043;-74
2022/04/07 05:46:25;;;;;;;13.85;7.85;;;15.30;99.90;;;;;;5114195;28;20051;-74
2022/04/07 05:49:29;;;;;;;11.40;5.20;;;14.00;99.90;;;;;;5115255;28;20035;-73
2022/04/07 05:52:33;;;;;;;4.40;3.15;;;12.60;99.90;;;;;;5115887;28;20067;-73
2022/04/07 05:55:38;;;;;;;10.07;4.32;;;11.60;99.90;;;;;;5115530;28;20043;-74
2022/04/07 05:58:42;;;;;;;6.78;4.43;;;10.80;99.90;;;;;;5115475;28;20039;-74
2022/04/07 06:01:46;;;;;;;6.60;4.05;;;10.30;99.90;;;;;;5112571;28;20654;-74
2022/04/07 06:04:50;;;;;;;7.97;4.25;;;10.00;99.90;;;;;;5108571;28;20054;-74
2022/04/07 06:07:58;;;;;;;6.80;4.95;;;9.80;99.90;;;;;;5112650;28;20391;-74
2022/04/07 06:11:02;;;;;;;7.55;3.88;;;9.80;99.90;;;;;;5114764;28;20491;-73
2022/04/07 06:14:06;;;;;;;4.45;3.40;;;9.80;99.90;;;;;;5097416;28;20152;-74
2022/04/07 06:17:10;;;;;;;9.82;4.47;;;9.80;99.90;;;;;;5105895;28;20047;-74
2022/04/07 06:20:14;;;;;;;9.02;4.68;;;9.90;99.90;;;;;;5109209;28;20042;-74
2022/04/07 06:23:18;;;;;;;6.53;3.00;;;9.80;99.90;;;;;;5105510;28;20030;-74
2022/04/07 06:26:23;;;;;;;7.32;4.22;;;9.70;99.90;;;;;;5105169;28;20039;-74
2022/04/07 06:29:27;;;;;;;7.32;3.92;;;9.80;99.90;;;;;;5106698;28;20032;-74
2022/04/07 06:32:32;;;;;;;8.00;4.07;;;9.90;99.90;;;;;;5108483;28;20478;-74
2022/04/07 06:35:36;;;;;;;10.02;4.03;;;10.10;99.90;;;;;;5104985;28;20039;-74
2022/04/07 06:38:40;;;;;;;9.65;3.70;;;10.40;99.90;;;;;;5112851;28;20055;-74
2022/04/07 06:41:44;;;;;;;5.80;3.00;;;10.60;99.90;;;;;;5107825;28;20039;-74
2022/04/07 06:44:51;;;;;;;7.70;3.63;;;10.60;99.90;;;;;;5105287;28;20043;-74
2022/04/07 06:47:55;;;;;;;9.25;3.70;;;10.60;99.90;;;;;;5109137;28;20504;-74
2022/04/07 06:50:59;;;;;;;6.47;3.92;;;10.70;99.90;;;;;;5111254;28;20378;-73
2022/04/07 06:54:03;;;;;;;6.07;2.78;;;10.50;99.90;;;;;;5109386;28;20067;-74
2022/04/07 06:57:07;;;;;;;4.65;2.65;;;10.60;99.90;;;;;;5108190;28;20434;-74
2022/04/07 07:00:12;;;;;;;4.03;2.17;;;10.80;99.90;;;;;;5105637;28;20051;-73
2022/04/07 07:03:16;;;;;;;7.93;2.90;;;11.00;99.90;;;;;;5109971;28;20043;-74
2022/04/07 07:06:20;;;;;;;4.82;2.42;;;11.20;99.90;;;;;;5106640;28;20047;-73
2022/04/07 07:09:25;;;;;;;6.45;2.53;;;11.60;99.90;;;;;;5104326;28;20043;-73
2022/04/07 07:12:29;;;;;;;3.15;2.42;;;11.90;99.90;;;;;;5111006;28;20046;-74
2022/04/07 07:15:34;;;;;;;3.70;2.50;;;13.20;99.90;;;;;;5113202;28;20386;-75
2022/04/07 07:18:42;;;;;;;7.85;2.47;;;14.40;99.90;;;;;;5103275;28;20039;-73
2022/04/07 07:21:46;;;;;;;6.20;2.03;;;15.80;99.90;;;;;;5109061;28;20039;-74
2022/04/07 07:24:51;;;;;;;4.45;1.70;;;17.50;99.90;;;;;;5102096;28;20042;-74
2022/04/07 07:27:55;;;;;;;5.43;2.10;;;18.00;99.90;;;;;;5111142;28;20043;-74
2022/04/07 07:30:59;;;;;;;4.88;1.20;;;18.80;99.90;;;;;;5104190;28;20521;-74
2022/04/07 07:34:03;;;;;;;4.80;1.50;;;19.40;99.90;;;;;;5101484;28;20043;-73
2022/04/07 07:37:11;;;;;;;3.90;1.60;;;20.90;99.90;;;;;;5104038;28;20051;-73
2022/04/07 07:40:16;;;;;;;5.07;1.60;;;23.00;97.70;;;;;;5113584;28;20050;-73
2022/04/07 07:43:21;;;;;;;4.75;2.30;;;22.10;96.10;;;;;;5100731;28;20506;-73
2022/04/07 07:46:25;;;;;;;4.82;2.10;;;21.00;97.70;;;;;;5108077;28;20046;-74
2022/04/07 07:49:28;;;;;;;5.53;1.90;;;21.70;98.00;;;;;;5107423;28;20038;-73
2022/04/07 07:52:32;;;;;;;7.60;1.95;;;22.60;96.70;;;;;;5113479;28;20035;-72
2022/04/07 07:55:37;;;;;;;5.03;1.70;;;23.70;94.80;;;;;;5105574;28;20030;-74
2022/04/07 07:58:42;;;;;;;6.40;2.17;;;24.00;94.00;;;;;;5113220;28;20043;-73
2022/04/07 08:01:49;;;;;;;2.83;1.40;;;24.70;93.70;;;;;;5109819;28;20054;-73
2022/04/07 08:05:18;;;;;;;2.95;1.30;;;25.80;91.60;;;;;;5105666;28;20064;-72
2022/04/07 08:08:22;;;;;;;4.85;1.80;;;27.00;90.30;;;;;;5108105;28;20481;-72
2022/04/07 08:11:26;;;;;;;5.03;1.70;;;27.90;88.00;;;;;;5099759;28;20038;-73
2022/04/07 08:14:31;;;;;;;3.80;1.70;;;27.50;83.20;;;;;;5104494;28;20046;-73
2022/04/07 08:17:35;;;;;;;6.32;3.17;;;25.70;86.80;;;;;;5097124;28;20054;-73
2022/04/07 08:20:39;;;;;;;4.38;2.08;;;23.90;89.00;;;;;;5092380;28;20051;-73
2022/04/07 08:23:43;;;;;;;3.80;2.00;;;21.90;90.90;;;;;;5098358;28;20043;-73
2022/04/07 08:26:49;;;;;;;5.78;3.08;;;20.50;92.20;;;;;;5105674;28;20041;-73
2022/04/07 08:29:53;;;;;;;8.95;4.10;;;19.80;95.00;;;;;;5105596;28;20047;-73
2022/04/07 08:32:57;;;;;;;4.68;2.92;;;19.20;95.00;;;;;;5107874;28;20038;-72
2022/04/07 08:36:02;;;;;;;6.88;3.25;;;18.80;96.40;;;;;;5101036;28;20039;-72
2022/04/07 08:39:06;;;;;;;6.05;3.05;;;18.30;96.80;;;;;;5108023;28;20504;-73
2022/04/07 08:42:10;;;;;;;6.57;2.95;;;18.10;98.30;;;;;;5102903;28;20386;-73
2022/04/07 08:45:14;;;;;;;5.25;2.70;;;18.00;98.80;;;;;;5104103;28;20039;-73
2022/04/07 08:48:18;;;;;;;5.65;2.88;;;17.60;98.50;;;;;;5100865;28;20039;-73
2022/04/07 08:51:26;;;;;;;6.30;2.78;;;17.20;99.60;;;;;;5104431;28;20031;-73
2022/04/07 08:54:30;;;;;;;4.28;2.40;;;16.60;99.90;;;;;;5099981;28;20568;-73
2022/04/07 08:57:37;;;;;;;5.90;2.97;;;16.30;99.90;;;;;;5098499;28;20502;-73
2022/04/07 09:00:41;;;;;;;6.50;3.42;;;16.20;99.90;;;;;;5101720;28;20046;-73
2022/04/07 09:03:46;;;;;;;4.78;2.85;;;16.40;99.90;;;;;;5105797;28;20043;-73
2022/04/07 09:06:55;;;;;;;9.85;2.90;;;16.60;99.90;;;;;;5104451;28;20039;-73
2022/04/07 09:10:02;;;;;;;7.30;3.70;;;17.20;99.90;;;;;;5106313;28;20043;-73
2022/04/07 09:13:07;;;;;;;5.50;3.50;;;17.30;99.90;;;;;;5110829;28;20513;-73
2022/04/07 09:16:13;;;;;;;5.93;2.90;;;17.20;99.90;;;;;;5104864;28;20051;-73
2022/04/07 09:19:21;;;;;;;5.38;2.90;;;17.00;99.90;;;;;;5105971;28;20038;-73
2022/04/07 09:22:31;;;;;;;6.28;3.70;;;16.40;99.90;;;;;;5104054;28;20046;-73
2022/04/07 09:25:43;;;;;;;4.95;3.72;;;16.00;99.90;;;;;;5103187;28;20058;-73
2022/04/07 09:28:47;;;;;;;;;;;15.60;99.90;;;;;;5103120;28;20042;-73
2022/04/07 09:31:53;;;;;;;9.48;3.58;;;14.20;99.90;;;;;;5107987;28;20278;-72
2022/04/07 09:34:59;;;;;;;11.73;3.38;;;13.40;99.90;;;;;;5110629;28;20047;-72
2022/04/07 09:38:03;;;;;;;5.65;3.63;;;12.50;99.90;;;;;;5108142;28;20042;-72
2022/04/07 09:41:10;;;;;;;7.20;3.53;;;12.20;99.90;;;;;;5108887;28;20043;-73
2022/04/07 09:44:19;;;;;;;7.82;3.88;;;12.30;99.90;;;;;;5098920;28;20063;-73
2022/04/07 09:47:24;;;;;;;10.40;3.70;;;12.20;99.90;;;;;;5109083;28;20046;-73
2022/04/07 09:50:33;;;;;;;6.45;3.75;;;12.50;99.90;;;;;;5106806;28;20042;-73
2022/04/07 09:53:38;;;;;;;11.18;4.13;;;12.50;99.90;;;;;;5109227;28;20382;-73
2022/04/07 09:56:45;;;;;;;7.78;3.80;;;12.80;99.90;;;;;;5103467;28;20042;-73
2022/04/07 09:59:50;;;;;;;7.32;3.97;;;13.00;99.90;;;;;;5105700;28;20047;-73
2022/04/07 10:02:56;;;;;;;7.85;3.30;;;13.20;99.90;;;;;;5104151;28;20035;-73
2022/04/07 10:06:01;;;;;;;7.88;3.30;;;13.50;99.90;;;;;;5107880;28;20070;-73
2022/04/07 10:09:08;;;;;;;7.28;3.88;;;13.60;99.90;;;;;;5108637;28;20036;-73
2022/04/07 10:12:15;;;;;;;7.38;3.90;;;13.20;99.90;;;;;;5106015;28;20035;-73
2022/04/07 10:15:19;;;;;;;11.48;5.50;;;13.20;99.90;;;;;;5104666;28;20038;-73
2022/04/07 10:18:51;;;;;;;10.32;4.55;;;13.00;99.90;;;;;;5105899;28;20497;-73
2022/04/07 10:22:01;;;;;;;9.32;4.18;;;12.70;99.90;;;;;;5103539;28;20055;-73
2022/04/07 10:25:07;;;;;;;7.07;4.63;;;12.30;99.90;;;;;;5106551;28;20066;-73
2022/04/07 10:28:11;;;;;;;10.15;4.60;;;12.20;99.90;;;;;;5106981;28;20039;-73
2022/04/07 10:31:16;;;;;;;11.52;4.95;;;12.30;99.90;;;;;;5108004;28;20047;-73
2022/04/07 10:34:32;;;;;;;6.97;4.47;;;12.20;99.90;;;;;;5102870;28;20046;-73
2022/04/07 10:37:47;;;;;;;7.88;3.63;;;12.40;99.90;;;;;;5103063;28;20042;-73
2022/04/07 10:40:51;;;;;;;7.95;3.95;;;12.60;99.90;;;;;;5105161;28;20069;-73
2022/04/07 10:44:19;;;;;;;11.23;4.50;;;12.70;99.90;;;;;;5106834;28;20525;-73
2022/04/07 10:47:27;;;;;;;9.55;4.93;;;12.80;99.90;;;;;;5108796;28;20034;-73
2022/04/07 10:50:32;;;;;;;10.95;4.88;;;12.90;99.90;;;;;;5107362;28;20495;-73
2022/04/07 10:53:41;;;;;;;15.48;5.82;;;13.10;99.90;;;;;;5106526;28;20579;-73
2022/04/07 10:56:53;;;;;;;15.25;5.60;;;13.10;99.90;;;;;;5100937;28;20315;-73
2022/04/07 11:00:02;;;;;;;15.27;5.38;;;13.10;99.90;;;;;;5108515;28;20040;-74
2022/04/07 11:03:17;;;;;;;13.05;5.72;;;13.10;99.90;;;;;;5107514;28;20035;-73
2022/04/07 11:06:21;;;;;;;12.30;6.20;;;13.00;99.90;;;;;;5099141;28;20027;-74
2022/04/07 11:09:53;;;;;;;13.50;6.63;;;13.00;99.90;;;;;;5106326;28;20038;-74
2022/04/07 11:13:03;;;;;;;16.13;6.63;;;12.90;99.90;;;;;;5105291;28;20084;-75
2022/04/07 11:16:23;;;;;;;15.75;7.50;;;12.80;99.90;;;;;;5110980;28;20026;-74
2022/04/07 11:19:51;;;;;;;15.57;7.47;;;12.70;99.90;;;;;;5108047;28;20039;-73
2022/04/07 11:22:55;;;;;;;14.80;6.65;;;12.60;99.90;;;;;;5110213;28;20406;-74
2022/04/07 11:26:17;;;;;;;16.60;6.60;;;12.60;99.90;;;;;;5111476;28;20137;-74
2022/04/07 11:29:34;;;;;;;;;;;12.50;99.90;;;;;;5105625;28;20485;-73
2022/04/07 11:32:41;;;;;;;20.20;4.13;;;12.70;99.90;;;;;;5107484;28;19907;-73
2022/04/07 11:36:11;;;;;;;11.15;4.38;;;13.10;99.90;;;;;;5107161;28;20051;-74
2022/04/07 11:39:16;;;;;;;11.75;4.32;;;13.70;99.90;;;;;;5103044;28;20489;-74
2022/04/07 11:42:22;;;;;;;29.15;7.93;;;14.40;99.90;;;;;;5106441;28;20386;-73
2022/04/07 11:45:32;;;;;;;18.30;5.65;;;15.00;99.90;;;;;;5099852;28;20039;-74
2022/04/07 11:48:38;;;;;;;15.75;4.97;;;15.40;99.90;;;;;;5108535;28;20039;-73
2022/04/07 11:51:45;;;;;;;17.63;4.30;;;15.70;99.90;;;;;;5102177;28;20043;-73
2022/04/07 11:54:52;;;;;;;14.48;3.95;;;15.80;99.90;;;;;;5098545;28;20062;-74
2022/04/07 11:58:00;;;;;;;18.20;5.03;;;15.70;99.90;;;;;;5103553;28;20059;-74
2022/04/07 12:01:11;;;;;;;15.45;5.35;;;15.80;99.90;;;;;;5108559;28;20043;-73
2022/04/07 12:04:16;;;;;;;18.20;4.90;;;15.80;99.90;;;;;;5106455;28;20375;-74
2022/04/07 12:07:21;;;;;;;15.32;4.95;;;15.10;99.90;;;;;;5104420;28;20059;-73
2022/04/07 12:10:25;;;;;;;25.77;11.40;;;15.00;99.90;;;;;;5102819;28;20039;-74
2022/04/07 12:13:29;;;;;;;25.83;9.43;;;14.90;99.90;;;;;;5098438;28;20034;-72
2022/04/07 12:16:35;;;;;;;16.27;7.80;;;14.80;99.90;;;;;;5105149;28;20039;-73
2022/04/07 12:19:47;;;;;;;13.73;4.57;;;14.50;99.90;;;;;;5099352;28;20097;-74
2022/04/07 12:23:08;;;;;;;;;;;14.20;99.90;;;;;;5103659;28;20378;-74
2022/04/07 12:26:13;;;;;;;23.65;4.00;;;14.00;99.90;;;;;;5097320;28;19911;-74
2022/04/07 12:29:31;;;;;;;9.57;3.78;;;13.90;99.90;;;;;;5098153;28;20034;-74
2022/04/07 12:32:44;;;;;;;15.07;3.78;;;13.90;99.90;;;;;;5102172;28;20062;-74
2022/04/07 12:35:49;;;;;;;9.73;3.70;;;13.90;99.90;;;;;;5106873;28;20038;-74
2022/04/07 12:38:59;;;;;;;13.35;3.55;;;13.80;99.90;;;;;;5106877;28;20482;-74
2022/04/07 12:42:10;;;;;;;13.15;4.18;;;13.90;99.90;;;;;;5105800;28;20522;-74
2022/04/07 12:45:14;;;;;;;11.35;4.43;;;14.10;99.90;;;;;;5093331;28;20039;-74
2022/04/07 12:48:22;;;;;;;10.65;3.40;;;14.20;99.90;;;;;;5104837;28;20036;-74
2022/04/07 12:51:26;;;;;;;17.65;3.70;;;14.20;99.90;;;;;;5101424;28;20043;-74
2022/04/07 12:54:33;;;;;;;13.88;3.80;;;14.40;99.90;;;;;;5099848;28;20059;-74
2022/04/07 12:57:42;;;;;;;21.45;7.15;;;14.30;99.90;;;;;;5098085;28;20050;-74
2022/04/07 13:01:01;;;;;;;17.50;7.15;;;14.20;99.90;;;;;;5099649;28;20043;-73
2022/04/07 13:04:08;;;;;;;13.45;3.92;;;14.00;99.90;;;;;;5108828;28;20035;-74
2022/04/07 13:07:14;;;;;;;12.02;3.45;;;14.10;99.90;;;;;;5106772;28;20039;-74
2022/04/07 13:10:18;;;;;;;15.13;3.35;;;14.50;99.90;;;;;;5107341;28;20047;-74
2022/04/07 13:13:22;;;;;;;18.20;3.72;;;14.70;99.90;;;;;;5098390;28;20035;-74
2022/04/07 13:16:26;;;;;;;11.18;3.33;;;14.80;99.90;;;;;;5103063;28;20600;-74
2022/04/07 13:19:30;;;;;;;14.70;3.67;;;14.90;99.90;;;;;;5107194;28;20382;-74
2022/04/07 13:22:34;;;;;;;12.73;3.60;;;14.90;99.90;;;;;;5106953;28;20043;-74
2022/04/07 13:25:38;;;;;;;11.38;3.65;;;14.90;99.90;;;;;;5094461;28;20031;-74
2022/04/07 13:28:42;;;;;;;13.25;4.13;;;14.80;99.90;;;;;;5108388;28;20047;-74
2022/04/07 13:31:46;;;;;;;11.98;3.42;;;15.00;99.90;;;;;;5097235;28;20046;-74
2022/04/07 13:34:51;;;;;;;14.05;3.40;;;15.40;99.90;;;;;;5109015;28;20474;-74
2022/04/07 13:37:58;;;;;;;18.10;3.35;;;15.70;99.90;;;;;;5108529;28;20047;-74
2022/04/07 13:41:03;;;;;;;17.67;3.92;;;15.70;99.90;;;;;;5110593;28;20105;-74
2022/04/07 13:44:07;;;;;;;13.82;3.65;;;15.50;99.90;;;;;;5109939;28;20042;-74
2022/04/07 13:47:11;;;;;;;13.15;3.67;;;15.40;99.90;;;;;;5110220;28;20391;-74
2022/04/07 13:50:15;;;;;;;16.33;3.97;;;15.30;99.90;;;;;;5107698;28;20039;-74
2022/04/07 13:53:19;;;;;;;21.15;7.03;;;15.20;99.90;;;;;;5095034;28;20039;-74
2022/04/07 13:56:23;;;;;;;15.10;5.35;;;15.10;99.90;;;;;;5089508;28;20047;-74
2022/04/07 13:59:28;;;;;;;18.25;4.55;;;14.90;99.90;;;;;;5106546;28;20089;-74
2022/04/07 14:02:32;;;;;;;13.98;4.43;;;15.00;99.90;;;;;;5113769;28;20386;-73
2022/04/07 14:05:36;;;;;;;15.05;3.20;;;13.90;99.90;;;;;;5113228;28;20034;-73
2022/04/07 14:08:40;;;;;;;50.28;19.48;;;14.10;99.90;;;;;;5092662;28;20047;-74
2022/04/07 14:11:44;;;;;;;17.33;3.95;;;14.20;99.90;;;;;;5109256;28;20113;-74
2022/04/07 14:14:48;;;;;;;10.93;3.53;;;14.30;99.90;;;;;;5105356;28;20046;-74
2022/04/07 14:17:52;;;;;;;16.13;3.40;;;14.30;99.90;;;;;;5113359;28;20351;-74
2022/04/07 14:20:56;;;;;;;15.88;2.97;;;14.50;99.90;;;;;;5112883;28;20386;-73
2022/04/07 14:24:00;;;;;;;12.00;3.75;;;14.10;99.90;;;;;;5099274;28;20043;-73
2022/04/07 14:27:05;;;;;;;14.00;3.25;;;13.60;99.90;;;;;;5092806;28;20709;-72
2022/04/07 14:30:09;;;;;;;14.80;3.97;;;13.20;99.90;;;;;;5100891;28;20042;-73
2022/04/07 14:33:13;;;;;;;20.52;4.38;;;13.00;99.90;;;;;;5105542;28;20288;-74
2022/04/07 14:36:17;;;;;;;13.95;3.53;;;13.00;99.90;;;;;;5101981;28;20248;-74
2022/04/07 14:39:22;;;;;;;15.55;3.92;;;13.30;99.90;;;;;;5105063;28;20062;-74
2022/04/07 14:42:27;;;;;;;15.10;3.80;;;13.20;99.90;;;;;;5092751;28;20055;-73
2022/04/07 14:45:30;;;;;;;17.63;4.00;;;13.20;99.90;;;;;;5092490;28;20051;-73
2022/04/07 14:48:34;;;;;;;13.70;3.38;;;13.20;99.90;;;;;;5109885;28;20098;-73
2022/04/07 14:51:38;;;;;;;10.82;2.83;;;13.30;99.90;;;;;;5113017;28;20128;-72
2022/04/07 14:54:42;;;;;;;16.73;4.70;;;13.30;99.90;;;;;;5109907;28;20043;-73
2022/04/07 14:57:47;;;;;;;11.20;2.80;;;13.30;99.90;;;;;;5105759;28;20394;-73
2022/04/07 15:00:51;;;;;;;14.60;5.10;;;13.10;99.90;;;;;;5111931;28;20042;-72
2022/04/07 15:03:55;;;;;;;13.43;3.83;;;13.00;99.90;;;;;;5112636;28;20050;-73
2022/04/07 15:06:59;;;;;;;10.85;2.22;;;13.00;99.90;;;;;;5112070;28;20049;-73
2022/04/07 15:10:05;;;;;;;11.73;2.85;;;13.00;99.90;;;;;;5110874;28;20034;-72
2022/04/07 15:13:09;;;;;;;11.15;3.05;;;12.90;99.90;;;;;;5115480;28;20485;-73
2022/04/07 15:16:14;;;;;;;17.27;3.30;;;13.10;99.90;;;;;;5109821;28;20046;-74
2022/04/07 15:19:20;;;;;;;12.65;2.20;;;13.30;99.90;;;;;;5103899;28;20375;-73
2022/04/07 15:22:25;;;;;;;17.58;3.05;;;13.40;99.90;;;;;;5103754;28;20049;-73
2022/04/07 15:25:29;;;;;;;14.07;3.90;;;13.40;99.90;;;;;;5111593;28;20038;-74
2022/04/07 15:28:33;;;;;;;16.52;3.25;;;13.70;99.90;;;;;;5112410;28;20066;-74
2022/04/07 15:31:38;;;;;;;19.42;7.07;;;14.00;99.90;;;;;;5112415;28;20058;-74
2022/04/07 15:34:42;;;;;;;34.60;15.27;;;14.20;99.90;;;;;;5112310;28;20043;-74
2022/04/07 15:37:46;;;;;;;12.27;2.92;;;14.40;99.90;;;;;;5111825;28;20050;-74
2022/04/07 15:40:50;;;;;;;8.82;2.65;;;14.50;99.90;;;;;;5111299;28;20114;-74
2022/04/07 15:43:55;;;;;;;11.82;3.33;;;14.50;99.90;;;;;;5111969;28;20050;-74
2022/04/07 15:46:59;;;;;;;20.10;4.45;;;14.30;99.90;;;;;;5111469;28;20039;-74
2022/04/07 15:50:05;;;;;;;24.85;9.85;;;14.40;99.90;;;;;;5111856;28;20045;-74
2022/04/07 15:53:09;;;;;;;13.75;3.28;;;14.50;99.90;;;;;;5111898;28;20043;-74
2022/04/07 15:56:13;;;;;;;15.13;3.05;;;14.50;99.90;;;;;;5112024;28;20050;-74
2022/04/07 15:59:17;;;;;;;12.52;2.90;;;14.60;99.90;;;;;;5112125;28;20043;-74
2022/04/07 16:02:22;;;;;;;18.95;6.07;;;14.60;99.90;;;;;;5111907;28;20054;-74